Terminal Aerodrome Forecast
Issued by NWS Wilmington, NC

Home | Current Version | Previous Version | Text Only | Print | Product List | Glossary On
Versions: 1 2 3 4 5 6 7 8 9 10 11 12 13 14 15 16 17 18 19
000
FTUS42 KILM 012300
TAFILM
TAF
KILM 012321Z 0200/0224 VRB02KT P6SM SKC
     FM020800 00000KT 4SM BR FEW003
     FM021400 VRB04KT P6SM FEW040=

USA.gov is the U.S. government's official web portal to all federal, state and local government web resources and services.